Malaviya Twenty — AUEV — position and weather

sailwx.info

Track history (hours):
 
Tides and Currents Weather Stations Pressure Air Temp Water Temp Dewpoint Dewpoint Depression Visibility Wind Speed Wind Dir Waves Ship Positions

Malaviya Twenty

Last reported at 2015-Apr-01 08:30 UTC. Time now 2015-Apr-01 09:30 UTC.
Position N 52°36' E 001°44'.

Length 72 m; draft 4 m.

Type: Ship. MMSI: 419504000.

Date/timePositionNaut miles runAvg speedWind from/ knotsBaromVisibWave heightAir tempDewpointWater temp
2015-Apr-01 08:30N 52°36' E 001°44'0 0.0
2015-Apr-01 07:30N 52°36' E 001°44'0 0.0
2015-Apr-01 06:33N 52°36' E 001°44'0 0.0
2015-Apr-01 05:33N 52°36' E 001°44'0 0.0
2015-Apr-01 04:33N 52°36' E 001°44'0 0.0
2015-Apr-01 03:33N 52°36' E 001°44'0 0.0
2015-Apr-01 02:30N 52°36' E 001°44'0 0.0
2015-Apr-01 01:33N 52°36' E 001°44'0 0.0
2015-Apr-01 00:33N 52°36' E 001°44'0 0.0
2015-Mar-31 23:33N 52°36' E 001°44'0 0.0
2015-Mar-31 22:33N 52°36' E 001°44'0 0.0
2015-Mar-31 21:33N 52°36' E 001°44'0 0.0
2015-Mar-31 20:33N 52°36' E 001°44'0 0.0
2015-Mar-31 19:33N 52°36' E 001°44'0 0.0
2015-Mar-31 18:33N 52°36' E 001°44'0 0.0
2015-Mar-31 17:33N 52°36' E 001°44'0 0.0
2015-Mar-31 16:33N 52°36' E 001°44'0 0.0
2015-Mar-31 15:33N 52°36' E 001°44'0 0.0
2015-Mar-31 14:33N 52°36' E 001°44'0 0.0
2015-Mar-31 13:33N 52°36' E 001°44'0 0.0
2015-Mar-31 12:33N 52°36' E 001°44'0 0.0
2015-Mar-31 11:33N 52°36' E 001°44'0 0.0
2015-Mar-31 10:33N 52°36' E 001°44'0 0.0
2015-Mar-31 09:32N 52°36' E 001°44'0 0.0
2015-Mar-31 08:32N 52°36' E 001°44'0 0.0
2015-Mar-31 07:32N 52°36' E 001°44'0 0.0
2015-Mar-31 06:32N 52°36' E 001°44'0 0.0
2015-Mar-31 05:32N 52°36' E 001°44'0 0.0
2015-Mar-31 04:32N 52°36' E 001°44'0 0.0
2015-Mar-31 03:32N 52°36' E 001°44'0 0.0
2015-Mar-31 02:32N 52°36' E 001°44'0 0.0
2015-Mar-31 01:32N 52°36' E 001°44'0 0.0
2015-Mar-31 00:32N 52°36' E 001°44'0 0.0
2015-Mar-30 23:32N 52°36' E 001°44'0 0.0
2015-Mar-30 22:32N 52°36' E 001°44'0 0.0
2015-Mar-30 21:32N 52°36' E 001°44'0 0.0
2015-Mar-30 20:32N 52°36' E 001°44'0 0.0
2015-Mar-30 19:32N 52°36' E 001°44'0 0.0
2015-Mar-30 18:32N 52°36' E 001°44'0 0.0
2015-Mar-30 17:32N 52°36' E 001°44'0 0.0
2015-Mar-30 16:32N 52°36' E 001°44'0 0.0
2015-Mar-30 15:32N 52°36' E 001°44'0 0.0
2015-Mar-30 14:32N 52°36' E 001°44'0 0.0
2015-Mar-30 13:32N 52°36' E 001°44'0 0.0
2015-Mar-30 12:32N 52°36' E 001°44'0 0.0
2015-Mar-30 11:32N 52°36' E 001°44'0 0.0
2015-Mar-30 10:32N 52°36' E 001°44'0 0.5
2015-Mar-30 09:31N 52°35' E 001°44'0 0.0
2015-Mar-30 08:31N 52°35' E 001°44'0 0.0
2015-Mar-30 07:31N 52°35' E 001°44'0 0.0
2015-Mar-30 06:31N 52°35' E 001°44'0 0.0
2015-Mar-30 05:31N 52°35' E 001°44'3 2.6
2015-Mar-30 04:33N 52°37' E 001°46'6 6.2
2015-Mar-30 03:33N 52°43' E 001°46'6 6.4
2015-Mar-30 02:33N 52°49' E 001°41'7 7.0
2015-Mar-30 01:34N 52°55' E 001°35'7 7.2
2015-Mar-30 00:33N 53°01' E 001°29'7 7.0
2015-Mar-29 23:33N 53°08' E 001°28'6 5.6
2015-Mar-29 22:33N 53°14' E 001°28'79 7.1
2015-Mar-29 11:18N 54°29' E 000°46'911.4
2015-Mar-29 10:34N 54°32' E 000°32'5 4.9
2015-Mar-29 09:34N 54°36' E 000°26'1 0.9
2015-Mar-29 08:13N 54°36' E 000°28'1 1.3
2015-Mar-29 07:14N 54°35' E 000°30'1 1.0
2015-Mar-29 06:34N 54°36' E 000°31'5 1.2
2015-Mar-29 02:33N 54°33' E 000°38'2 2.0
2015-Mar-29 01:33N 54°35' E 000°37'2 1.8
2015-Mar-29 00:21N 54°37' E 000°36'5 3.0
2015-Mar-28 22:34N 54°42' E 000°32'2 2.3
2015-Mar-28 21:32N 54°39' E 000°31'4 2.7
2015-Mar-28 20:06N 54°36' E 000°31'0 0.6
2015-Mar-28 19:33N 54°36' E 000°30'3 2.3
2015-Mar-28 18:20N 54°39' E 000°30'1 0.9
2015-Mar-28 17:33N 54°39' E 000°29'1 1.3
2015-Mar-28 16:31N 54°39' E 000°27'3 3.3
2015-Mar-28 15:33N 54°36' E 000°25'3 2.2
2015-Mar-28 14:08N 54°35' E 000°31'1 0.9
2015-Mar-28 13:34N 54°35' E 000°31'2 2.1
2015-Mar-28 12:31N 54°37' E 000°32'1 1.0
2015-Mar-28 11:04N 54°36' E 000°32'2 3.3
2015-Mar-28 10:30N 54°34' E 000°31'0 0.4
2015-Mar-28 09:33N 54°34' E 000°31'1 1.1
2015-Mar-28 08:33N 54°36' E 000°30'1 0.9
2015-Mar-28 07:25N 54°36' E 000°29'1 0.8
2015-Mar-28 06:33N 54°36' E 000°28'5 3.5
2015-Mar-28 05:05N 54°33' E 000°35'2 3.8
2015-Mar-28 04:34N 54°32' E 000°38'4 4.0
2015-Mar-28 03:29N 54°29' E 000°44'75 6.2
2015-Mar-27 15:29N 53°25' E 001°48'1 0.6
2015-Mar-27 14:28N 53°24' E 001°47'12 1.1
2015-Mar-27 03:31N 53°21' E 001°28'8 8.0
2015-Mar-27 02:33N 53°14' E 001°28'8 8.3
2015-Mar-27 01:33N 53°05' E 001°28'8 7.7
2015-Mar-27 00:34N 52°58' E 001°31'7 7.3
2015-Mar-26 23:33N 52°52' E 001°38'8 7.6
2015-Mar-26 22:34N 52°45' E 001°44'8 8.0
2015-Mar-26 21:33N 52°37' E 001°46'2 2.3
2015-Mar-26 20:32N 52°35' E 001°44'0 0.0
2015-Mar-26 19:32N 52°35' E 001°44'0 0.0
2015-Mar-26 18:32N 52°35' E 001°44'0 0.4
2015-Mar-26 17:32N 52°35' E 001°44'0 0.0
2015-Mar-26 16:32N 52°35' E 001°44'0 0.0
2015-Mar-26 15:32N 52°35' E 001°44'0 0.0
2015-Mar-26 14:32N 52°35' E 001°44'0 0.0
2015-Mar-26 13:32N 52°35' E 001°44'0 0.0
2015-Mar-26 12:32N 52°35' E 001°44'0 0.0
2015-Mar-26 11:32N 52°35' E 001°44'0 0.0
2015-Mar-26 10:32N 52°35' E 001°44'0 0.0
2015-Mar-26 09:31N 52°35' E 001°44'0 0.0
2015-Mar-26 08:31N 52°35' E 001°44'0 0.0
2015-Mar-26 07:31N 52°35' E 001°44'0 0.0
2015-Mar-26 06:31N 52°35' E 001°44'0 0.0
2015-Mar-26 05:31N 52°35' E 001°44'0 0.0
2015-Mar-26 04:31N 52°35' E 001°44'0 0.0
2015-Mar-26 03:31N 52°35' E 001°44'0 0.0
2015-Mar-26 02:31N 52°35' E 001°44'0 0.0
2015-Mar-26 01:31N 52°35' E 001°44'0 0.0
2015-Mar-26 00:31N 52°35' E 001°44'0 0.0
2015-Mar-25 23:31N 52°35' E 001°44'0 0.0
2015-Mar-25 22:31N 52°35' E 001°44'0 0.0
2015-Mar-25 21:31N 52°35' E 001°44'0 0.0
2015-Mar-25 20:31N 52°35' E 001°44'0 0.0
2015-Mar-25 19:31N 52°35' E 001°44'0 0.0
2015-Mar-25 18:31N 52°35' E 001°44'0 0.0
2015-Mar-25 17:31N 52°35' E 001°44'0 0.0
2015-Mar-25 16:31N 52°35' E 001°44'0 0.0
2015-Mar-25 15:31N 52°35' E 001°44'0 0.0
2015-Mar-25 14:31N 52°35' E 001°44'0 0.0
2015-Mar-25 13:31N 52°35' E 001°44'0 0.0
2015-Mar-25 12:31N 52°35' E 001°44'0 0.0
2015-Mar-25 11:31N 52°35' E 001°44'0 0.0
2015-Mar-25 10:31N 52°35' E 001°44'0 0.0
2015-Mar-25 09:31N 52°35' E 001°44'0 0.0
2015-Mar-25 08:31N 52°35' E 001°44'0 0.0
2015-Mar-25 07:31N 52°35' E 001°44'0 0.0
2015-Mar-25 06:33N 52°35' E 001°44'2 1.8
2015-Mar-25 05:33N 52°37' E 001°46'6 6.2
2015-Mar-25 04:34N 52°43' E 001°46'2 2.3
2015-Mar-25 03:33N 52°45' E 001°45'4 3.9
2015-Mar-25 02:33N 52°48' E 001°41'5 4.7
2015-Mar-25 01:33N 52°52' E 001°37'5 5.0
2015-Mar-25 00:33N 52°56' E 001°33'5 5.2
2015-Mar-24 23:33N 53°01' E 001°29'7 6.9
2015-Mar-24 22:33N 53°08' E 001°28'8 0.3
2015-Mar-23 22:08N 53°16' E 001°28'610.3
2015-Mar-23 21:33N 53°10' E 001°28'10 9.9
2015-Mar-23 20:33N 52°60' E 001°30'9 9.1
2015-Mar-23 19:34N 52°52' E 001°37'1010.2
2015-Mar-23 18:33N 52°43' E 001°46'9 8.5
2015-Mar-23 17:33N 52°35' E 001°44'1 0.9
2015-Mar-23 16:31N 52°36' E 001°44'0 0.0
2015-Mar-23 15:31N 52°36' E 001°44'0 0.0
2015-Mar-23 14:31N 52°36' E 001°44'0 0.0
2015-Mar-23 13:31N 52°36' E 001°44'0 0.0
2015-Mar-23 12:31N 52°36' E 001°44'0 0.0
2015-Mar-23 11:31N 52°36' E 001°44'0 0.0
2015-Mar-23 10:31N 52°36' E 001°44'0 0.0
2015-Mar-23 09:31N 52°36' E 001°44'0 0.0
2015-Mar-23 08:34N 52°36' E 001°44'0 0.0
2015-Mar-23 07:33N 52°36' E 001°44'0 0.0
2015-Mar-23 06:33N 52°36' E 001°44'0 0.0
2015-Mar-23 05:33N 52°36' E 001°44'0 0.0
2015-Mar-23 04:33N 52°36' E 001°44'0 0.0
2015-Mar-23 03:33N 52°36' E 001°44'0 0.0
2015-Mar-23 02:33N 52°36' E 001°44'0 0.0
2015-Mar-23 01:33N 52°36' E 001°44'0 0.0
2015-Mar-23 00:33N 52°36' E 001°44'0 0.0
2015-Mar-22 23:30N 52°36' E 001°44'0 0.0
2015-Mar-22 22:33N 52°36' E 001°44'0 0.0
2015-Mar-22 21:33N 52°36' E 001°44'0 0.0
2015-Mar-22 20:33N 52°36' E 001°44'0 0.0
2015-Mar-22 19:33N 52°36' E 001°44'0 0.0
2015-Mar-22 18:33N 52°36' E 001°44'0 0.0
2015-Mar-22 17:33N 52°36' E 001°44'0 0.0
2015-Mar-22 16:33N 52°36' E 001°44'0 0.0
2015-Mar-22 15:33N 52°36' E 001°44'0 0.0
2015-Mar-22 14:33N 52°36' E 001°44'0 0.0
2015-Mar-22 13:33N 52°36' E 001°44'0 0.0
2015-Mar-22 12:33N 52°36' E 001°44'0 0.0
2015-Mar-22 11:33N 52°36' E 001°44'0 0.0
2015-Mar-22 10:33N 52°36' E 001°44'0 0.0
2015-Mar-22 09:33N 52°36' E 001°44'0 0.0
2015-Mar-22 08:33N 52°36' E 001°44'  
Track history (hours):
 
Tides and Currents Weather Stations Pressure Air Temp Water Temp Dewpoint Dewpoint Depression Visibility Wind Speed Wind Dir Waves Ship Positions

Malaviya Twenty

Last reported at 2015-Apr-01 08:30 UTC. Time now 2015-Apr-01 09:30 UTC.
Position N 52°36' E 001°44'.

Length 72 m; draft 4 m.

Type: Ship. MMSI: 419504000.

Date/timePositionNaut miles runAvg speedWind from/ knotsBaromVisibWave heightAir tempDewpointWater temp
2015-Apr-01 08:30N 52°36' E 001°44'0 0.0
2015-Apr-01 07:30N 52°36' E 001°44'0 0.0
2015-Apr-01 06:33N 52°36' E 001°44'0 0.0
2015-Apr-01 05:33N 52°36' E 001°44'0 0.0
2015-Apr-01 04:33N 52°36' E 001°44'0 0.0
2015-Apr-01 03:33N 52°36' E 001°44'0 0.0
2015-Apr-01 02:30N 52°36' E 001°44'0 0.0
2015-Apr-01 01:33N 52°36' E 001°44'0 0.0
2015-Apr-01 00:33N 52°36' E 001°44'0 0.0
2015-Mar-31 23:33N 52°36' E 001°44'0 0.0
2015-Mar-31 22:33N 52°36' E 001°44'0 0.0
2015-Mar-31 21:33N 52°36' E 001°44'0 0.0
2015-Mar-31 20:33N 52°36' E 001°44'0 0.0
2015-Mar-31 19:33N 52°36' E 001°44'0 0.0
2015-Mar-31 18:33N 52°36' E 001°44'0 0.0
2015-Mar-31 17:33N 52°36' E 001°44'0 0.0
2015-Mar-31 16:33N 52°36' E 001°44'0 0.0
2015-Mar-31 15:33N 52°36' E 001°44'0 0.0
2015-Mar-31 14:33N 52°36' E 001°44'0 0.0
2015-Mar-31 13:33N 52°36' E 001°44'0 0.0
2015-Mar-31 12:33N 52°36' E 001°44'0 0.0
2015-Mar-31 11:33N 52°36' E 001°44'0 0.0
2015-Mar-31 10:33N 52°36' E 001°44'0 0.0
2015-Mar-31 09:32N 52°36' E 001°44'0 0.0
2015-Mar-31 08:32N 52°36' E 001°44'0 0.0
2015-Mar-31 07:32N 52°36' E 001°44'0 0.0
2015-Mar-31 06:32N 52°36' E 001°44'0 0.0
2015-Mar-31 05:32N 52°36' E 001°44'0 0.0
2015-Mar-31 04:32N 52°36' E 001°44'0 0.0
2015-Mar-31 03:32N 52°36' E 001°44'0 0.0
2015-Mar-31 02:32N 52°36' E 001°44'0 0.0
2015-Mar-31 01:32N 52°36' E 001°44'0 0.0
2015-Mar-31 00:32N 52°36' E 001°44'0 0.0
2015-Mar-30 23:32N 52°36' E 001°44'0 0.0
2015-Mar-30 22:32N 52°36' E 001°44'0 0.0
2015-Mar-30 21:32N 52°36' E 001°44'0 0.0
2015-Mar-30 20:32N 52°36' E 001°44'0 0.0
2015-Mar-30 19:32N 52°36' E 001°44'0 0.0
2015-Mar-30 18:32N 52°36' E 001°44'0 0.0
2015-Mar-30 17:32N 52°36' E 001°44'0 0.0
2015-Mar-30 16:32N 52°36' E 001°44'0 0.0
2015-Mar-30 15:32N 52°36' E 001°44'0 0.0
2015-Mar-30 14:32N 52°36' E 001°44'0 0.0
2015-Mar-30 13:32N 52°36' E 001°44'0 0.0
2015-Mar-30 12:32N 52°36' E 001°44'0 0.0
2015-Mar-30 11:32N 52°36' E 001°44'0 0.0
2015-Mar-30 10:32N 52°36' E 001°44'0 0.5
2015-Mar-30 09:31N 52°35' E 001°44'0 0.0
2015-Mar-30 08:31N 52°35' E 001°44'0 0.0
2015-Mar-30 07:31N 52°35' E 001°44'0 0.0
2015-Mar-30 06:31N 52°35' E 001°44'0 0.0
2015-Mar-30 05:31N 52°35' E 001°44'3 2.6
2015-Mar-30 04:33N 52°37' E 001°46'6 6.2
2015-Mar-30 03:33N 52°43' E 001°46'6 6.4
2015-Mar-30 02:33N 52°49' E 001°41'7 7.0
2015-Mar-30 01:34N 52°55' E 001°35'7 7.2
2015-Mar-30 00:33N 53°01' E 001°29'7 7.0
2015-Mar-29 23:33N 53°08' E 001°28'6 5.6
2015-Mar-29 22:33N 53°14' E 001°28'79 7.1
2015-Mar-29 11:18N 54°29' E 000°46'911.4
2015-Mar-29 10:34N 54°32' E 000°32'5 4.9
2015-Mar-29 09:34N 54°36' E 000°26'1 0.9
2015-Mar-29 08:13N 54°36' E 000°28'1 1.3
2015-Mar-29 07:14N 54°35' E 000°30'1 1.0
2015-Mar-29 06:34N 54°36' E 000°31'5 1.2
2015-Mar-29 02:33N 54°33' E 000°38'2 2.0
2015-Mar-29 01:33N 54°35' E 000°37'2 1.8
2015-Mar-29 00:21N 54°37' E 000°36'5 3.0
2015-Mar-28 22:34N 54°42' E 000°32'2 2.3
2015-Mar-28 21:32N 54°39' E 000°31'4 2.7
2015-Mar-28 20:06N 54°36' E 000°31'0 0.6
2015-Mar-28 19:33N 54°36' E 000°30'3 2.3
2015-Mar-28 18:20N 54°39' E 000°30'1 0.9
2015-Mar-28 17:33N 54°39' E 000°29'1 1.3
2015-Mar-28 16:31N 54°39' E 000°27'3 3.3
2015-Mar-28 15:33N 54°36' E 000°25'3 2.2
2015-Mar-28 14:08N 54°35' E 000°31'1 0.9
2015-Mar-28 13:34N 54°35' E 000°31'2 2.1
2015-Mar-28 12:31N 54°37' E 000°32'1 1.0
2015-Mar-28 11:04N 54°36' E 000°32'2 3.3
2015-Mar-28 10:30N 54°34' E 000°31'0 0.4
2015-Mar-28 09:33N 54°34' E 000°31'1 1.1
2015-Mar-28 08:33N 54°36' E 000°30'1 0.9
2015-Mar-28 07:25N 54°36' E 000°29'1 0.8
2015-Mar-28 06:33N 54°36' E 000°28'5 3.5
2015-Mar-28 05:05N 54°33' E 000°35'2 3.8
2015-Mar-28 04:34N 54°32' E 000°38'4 4.0
2015-Mar-28 03:29N 54°29' E 000°44'75 6.2
2015-Mar-27 15:29N 53°25' E 001°48'1 0.6
2015-Mar-27 14:28N 53°24' E 001°47'12 1.1
2015-Mar-27 03:31N 53°21' E 001°28'8 8.0
2015-Mar-27 02:33N 53°14' E 001°28'8 8.3
2015-Mar-27 01:33N 53°05' E 001°28'8 7.7
2015-Mar-27 00:34N 52°58' E 001°31'7 7.3
2015-Mar-26 23:33N 52°52' E 001°38'8 7.6
2015-Mar-26 22:34N 52°45' E 001°44'8 8.0
2015-Mar-26 21:33N 52°37' E 001°46'2 2.3
2015-Mar-26 20:32N 52°35' E 001°44'0 0.0
2015-Mar-26 19:32N 52°35' E 001°44'0 0.0
2015-Mar-26 18:32N 52°35' E 001°44'0 0.4
2015-Mar-26 17:32N 52°35' E 001°44'0 0.0
2015-Mar-26 16:32N 52°35' E 001°44'0 0.0
2015-Mar-26 15:32N 52°35' E 001°44'0 0.0
2015-Mar-26 14:32N 52°35' E 001°44'0 0.0
2015-Mar-26 13:32N 52°35' E 001°44'0 0.0
2015-Mar-26 12:32N 52°35' E 001°44'0 0.0
2015-Mar-26 11:32N 52°35' E 001°44'0 0.0
2015-Mar-26 10:32N 52°35' E 001°44'0 0.0
2015-Mar-26 09:31N 52°35' E 001°44'0 0.0
2015-Mar-26 08:31N 52°35' E 001°44'0 0.0
2015-Mar-26 07:31N 52°35' E 001°44'0 0.0
2015-Mar-26 06:31N 52°35' E 001°44'0 0.0
2015-Mar-26 05:31N 52°35' E 001°44'0 0.0
2015-Mar-26 04:31N 52°35' E 001°44'0 0.0
2015-Mar-26 03:31N 52°35' E 001°44'0 0.0
2015-Mar-26 02:31N 52°35' E 001°44'0 0.0
2015-Mar-26 01:31N 52°35' E 001°44'0 0.0
2015-Mar-26 00:31N 52°35' E 001°44'0 0.0
2015-Mar-25 23:31N 52°35' E 001°44'0 0.0
2015-Mar-25 22:31N 52°35' E 001°44'0 0.0
2015-Mar-25 21:31N 52°35' E 001°44'0 0.0
2015-Mar-25 20:31N 52°35' E 001°44'0 0.0
2015-Mar-25 19:31N 52°35' E 001°44'0 0.0
2015-Mar-25 18:31N 52°35' E 001°44'0 0.0
2015-Mar-25 17:31N 52°35' E 001°44'0 0.0
2015-Mar-25 16:31N 52°35' E 001°44'0 0.0
2015-Mar-25 15:31N 52°35' E 001°44'0 0.0
2015-Mar-25 14:31N 52°35' E 001°44'0 0.0
2015-Mar-25 13:31N 52°35' E 001°44'0 0.0
2015-Mar-25 12:31N 52°35' E 001°44'0 0.0
2015-Mar-25 11:31N 52°35' E 001°44'0 0.0
2015-Mar-25 10:31N 52°35' E 001°44'0 0.0
2015-Mar-25 09:31N 52°35' E 001°44'0 0.0
2015-Mar-25 08:31N 52°35' E 001°44'0 0.0
2015-Mar-25 07:31N 52°35' E 001°44'0 0.0
2015-Mar-25 06:33N 52°35' E 001°44'2 1.8
2015-Mar-25 05:33N 52°37' E 001°46'6 6.2
2015-Mar-25 04:34N 52°43' E 001°46'2 2.3
2015-Mar-25 03:33N 52°45' E 001°45'4 3.9
2015-Mar-25 02:33N 52°48' E 001°41'5 4.7
2015-Mar-25 01:33N 52°52' E 001°37'5 5.0
2015-Mar-25 00:33N 52°56' E 001°33'5 5.2
2015-Mar-24 23:33N 53°01' E 001°29'7 6.9
2015-Mar-24 22:33N 53°08' E 001°28'8 0.3
2015-Mar-23 22:08N 53°16' E 001°28'610.3
2015-Mar-23 21:33N 53°10' E 001°28'10 9.9
2015-Mar-23 20:33N 52°60' E 001°30'9 9.1
2015-Mar-23 19:34N 52°52' E 001°37'1010.2
2015-Mar-23 18:33N 52°43' E 001°46'9 8.5
2015-Mar-23 17:33N 52°35' E 001°44'1 0.9
2015-Mar-23 16:31N 52°36' E 001°44'0 0.0
2015-Mar-23 15:31N 52°36' E 001°44'0 0.0
2015-Mar-23 14:31N 52°36' E 001°44'0 0.0
2015-Mar-23 13:31N 52°36' E 001°44'0 0.0
2015-Mar-23 12:31N 52°36' E 001°44'0 0.0
2015-Mar-23 11:31N 52°36' E 001°44'0 0.0
2015-Mar-23 10:31N 52°36' E 001°44'0 0.0
2015-Mar-23 09:31N 52°36' E 001°44'0 0.0
2015-Mar-23 08:34N 52°36' E 001°44'0 0.0
2015-Mar-23 07:33N 52°36' E 001°44'0 0.0
2015-Mar-23 06:33N 52°36' E 001°44'0 0.0
2015-Mar-23 05:33N 52°36' E 001°44'0 0.0
2015-Mar-23 04:33N 52°36' E 001°44'0 0.0
2015-Mar-23 03:33N 52°36' E 001°44'0 0.0
2015-Mar-23 02:33N 52°36' E 001°44'0 0.0
2015-Mar-23 01:33N 52°36' E 001°44'0 0.0
2015-Mar-23 00:33N 52°36' E 001°44'0 0.0
2015-Mar-22 23:30N 52°36' E 001°44'0 0.0
2015-Mar-22 22:33N 52°36' E 001°44'0 0.0
2015-Mar-22 21:33N 52°36' E 001°44'0 0.0
2015-Mar-22 20:33N 52°36' E 001°44'0 0.0
2015-Mar-22 19:33N 52°36' E 001°44'0 0.0
2015-Mar-22 18:33N 52°36' E 001°44'0 0.0
2015-Mar-22 17:33N 52°36' E 001°44'0 0.0
2015-Mar-22 16:33N 52°36' E 001°44'0 0.0
2015-Mar-22 15:33N 52°36' E 001°44'0 0.0
2015-Mar-22 14:33N 52°36' E 001°44'0 0.0
2015-Mar-22 13:33N 52°36' E 001°44'0 0.0
2015-Mar-22 12:33N 52°36' E 001°44'0 0.0
2015-Mar-22 11:33N 52°36' E 001°44'0 0.0
2015-Mar-22 10:33N 52°36' E 001°44'0 0.0
2015-Mar-22 09:33N 52°36' E 001°44'0 0.0
2015-Mar-22 08:33N 52°36' E 001°44'  

Dump ship's entire track history